sensor_id;sensor_type;location;lat;lon;timestamp;P1;durP1;ratioP1;P2;durP2;ratioP2
61911;SDS011;49973;52.084;5.412;2022-12-11T00:01:11;83.97;;;21.87;;
61911;SDS011;49973;52.084;5.412;2022-12-11T00:03:41;75.37;;;20.53;;
61911;SDS011;49973;52.084;5.412;2022-12-11T00:06:10;78.07;;;20.63;;
61911;SDS011;49973;52.084;5.412;2022-12-11T00:08:40;79.33;;;22.23;;
61911;SDS011;49973;52.084;5.412;2022-12-11T00:11:11;81.10;;;21.57;;
61911;SDS011;49973;52.084;5.412;2022-12-11T00:13:41;85.17;;;20.97;;
61911;SDS011;49973;52.084;5.412;2022-12-11T00:16:10;77.30;;;20.47;;
61911;SDS011;49973;52.084;5.412;2022-12-11T00:18:39;78.43;;;19.63;;
61911;SDS011;49973;52.084;5.412;2022-12-11T00:21:08;88.23;;;23.53;;
61911;SDS011;49973;52.084;5.412;2022-12-11T00:23:39;71.63;;;19.53;;
61911;SDS011;49973;52.084;5.412;2022-12-11T00:26:09;81.57;;;20.23;;
61911;SDS011;49973;52.084;5.412;2022-12-11T00:28:41;85.60;;;21.47;;
61911;SDS011;49973;52.084;5.412;2022-12-11T00:31:12;76.80;;;21.13;;
61911;SDS011;49973;52.084;5.412;2022-12-11T00:33:41;76.47;;;21.23;;
61911;SDS011;49973;52.084;5.412;2022-12-11T00:36:11;71.80;;;20.73;;
61911;SDS011;49973;52.084;5.412;2022-12-11T00:38:40;84.30;;;20.93;;
61911;SDS011;49973;52.084;5.412;2022-12-11T00:41:09;80.23;;;21.53;;
61911;SDS011;49973;52.084;5.412;2022-12-11T00:43:39;83.60;;;21.47;;
61911;SDS011;49973;52.084;5.412;2022-12-11T00:46:07;71.83;;;19.07;;
61911;SDS011;49973;52.084;5.412;2022-12-11T00:48:36;85.90;;;22.00;;
61911;SDS011;49973;52.084;5.412;2022-12-11T00:51:05;89.40;;;21.90;;
61911;SDS011;49973;52.084;5.412;2022-12-11T00:53:34;83.30;;;21.13;;
61911;SDS011;49973;52.084;5.412;2022-12-11T00:56:08;79.97;;;22.10;;
61911;SDS011;49973;52.084;5.412;2022-12-11T00:58:39;79.23;;;21.97;;
61911;SDS011;49973;52.084;5.412;2022-12-11T01:01:08;62.00;;;19.00;;
61911;SDS011;49973;52.084;5.412;2022-12-11T01:03:38;75.87;;;22.03;;
61911;SDS011;49973;52.084;5.412;2022-12-11T01:06:07;90.07;;;22.20;;
61911;SDS011;49973;52.084;5.412;2022-12-11T01:08:39;81.70;;;22.27;;
61911;SDS011;49973;52.084;5.412;2022-12-11T01:11:08;76.00;;;20.20;;
61911;SDS011;49973;52.084;5.412;2022-12-11T01:13:37;84.63;;;23.07;;
61911;SDS011;49973;52.084;5.412;2022-12-11T01:16:08;86.40;;;22.37;;
61911;SDS011;49973;52.084;5.412;2022-12-11T01:18:39;93.00;;;24.40;;
61911;SDS011;49973;52.084;5.412;2022-12-11T01:21:08;84.47;;;23.50;;
61911;SDS011;49973;52.084;5.412;2022-12-11T01:23:38;99.67;;;23.17;;
61911;SDS011;49973;52.084;5.412;2022-12-11T01:26:07;119.70;;;22.90;;
61911;SDS011;49973;52.084;5.412;2022-12-11T01:28:37;81.07;;;21.53;;
61911;SDS011;49973;52.084;5.412;2022-12-11T01:31:08;110.40;;;25.43;;
61911;SDS011;49973;52.084;5.412;2022-12-11T01:33:38;90.60;;;21.47;;
61911;SDS011;49973;52.084;5.412;2022-12-11T01:36:08;109.37;;;22.93;;
61911;SDS011;49973;52.084;5.412;2022-12-11T01:38:37;87.70;;;23.87;;
61911;SDS011;49973;52.084;5.412;2022-12-11T01:41:07;103.97;;;23.57;;
61911;SDS011;49973;52.084;5.412;2022-12-11T01:46:23;92.57;;;24.60;;
61911;SDS011;49973;52.084;5.412;2022-12-11T01:48:52;75.93;;;21.57;;
61911;SDS011;49973;52.084;5.412;2022-12-11T01:51:22;97.70;;;23.10;;
61911;SDS011;49973;52.084;5.412;2022-12-11T01:53:52;134.60;;;23.53;;
61911;SDS011;49973;52.084;5.412;2022-12-11T01:56:24;93.57;;;24.60;;
61911;SDS011;49973;52.084;5.412;2022-12-11T01:58:54;96.20;;;23.77;;
61911;SDS011;49973;52.084;5.412;2022-12-11T02:01:27;101.33;;;21.23;;
61911;SDS011;49973;52.084;5.412;2022-12-11T02:04:01;77.60;;;23.30;;
61911;SDS011;49973;52.084;5.412;2022-12-11T02:06:30;85.40;;;22.40;;
61911;SDS011;49973;52.084;5.412;2022-12-11T02:09:01;81.43;;;22.80;;
61911;SDS011;49973;52.084;5.412;2022-12-11T02:11:33;71.87;;;20.87;;
61911;SDS011;49973;52.084;5.412;2022-12-11T02:14:10;91.90;;;21.60;;
61911;SDS011;49973;52.084;5.412;2022-12-11T02:16:44;82.27;;;22.17;;
61911;SDS011;49973;52.084;5.412;2022-12-11T02:19:17;78.53;;;21.40;;
61911;SDS011;49973;52.084;5.412;2022-12-11T02:21:58;79.93;;;22.40;;
61911;SDS011;49973;52.084;5.412;2022-12-11T02:24:38;83.67;;;22.90;;
61911;SDS011;49973;52.084;5.412;2022-12-11T02:27:19;73.57;;;21.30;;
61911;SDS011;49973;52.084;5.412;2022-12-11T02:29:58;72.20;;;21.50;;
61911;SDS011;49973;52.084;5.412;2022-12-11T02:32:32;69.83;;;20.97;;
61911;SDS011;49973;52.084;5.412;2022-12-11T02:35:07;69.77;;;22.77;;
61911;SDS011;49973;52.084;5.412;2022-12-11T02:37:40;78.37;;;22.03;;
61911;SDS011;49973;52.084;5.412;2022-12-11T02:40:12;66.43;;;21.67;;
61911;SDS011;49973;52.084;5.412;2022-12-11T02:42:44;65.40;;;21.17;;
61911;SDS011;49973;52.084;5.412;2022-12-11T02:45:16;65.27;;;22.67;;
61911;SDS011;49973;52.084;5.412;2022-12-11T02:47:46;63.63;;;20.77;;
61911;SDS011;49973;52.084;5.412;2022-12-11T02:50:17;61.17;;;18.93;;
61911;SDS011;49973;52.084;5.412;2022-12-11T02:52:49;68.00;;;21.13;;
61911;SDS011;49973;52.084;5.412;2022-12-11T02:55:21;70.30;;;23.10;;
61911;SDS011;49973;52.084;5.412;2022-12-11T02:57:54;57.23;;;19.70;;
61911;SDS011;49973;52.084;5.412;2022-12-11T03:00:30;56.00;;;18.63;;
61911;SDS011;49973;52.084;5.412;2022-12-11T03:02:59;59.60;;;20.33;;
61911;SDS011;49973;52.084;5.412;2022-12-11T03:05:28;62.30;;;21.33;;
61911;SDS011;49973;52.084;5.412;2022-12-11T03:07:57;61.87;;;20.10;;
61911;SDS011;49973;52.084;5.412;2022-12-11T03:10:25;60.57;;;20.47;;
61911;SDS011;49973;52.084;5.412;2022-12-11T03:12:54;64.37;;;21.23;;
61911;SDS011;49973;52.084;5.412;2022-12-11T03:15:27;60.77;;;20.30;;
61911;SDS011;49973;52.084;5.412;2022-12-11T03:18:03;55.97;;;19.77;;
61911;SDS011;49973;52.084;5.412;2022-12-11T03:20:37;57.63;;;21.43;;
61911;SDS011;49973;52.084;5.412;2022-12-11T03:23:11;58.13;;;20.57;;
61911;SDS011;49973;52.084;5.412;2022-12-11T03:25:49;61.47;;;21.60;;
61911;SDS011;49973;52.084;5.412;2022-12-11T03:28:23;59.13;;;19.63;;
61911;SDS011;49973;52.084;5.412;2022-12-11T03:30:57;60.30;;;20.83;;
61911;SDS011;49973;52.084;5.412;2022-12-11T03:33:33;60.77;;;21.43;;
61911;SDS011;49973;52.084;5.412;2022-12-11T03:36:05;55.93;;;20.17;;
61911;SDS011;49973;52.084;5.412;2022-12-11T03:38:37;53.43;;;18.27;;
61911;SDS011;49973;52.084;5.412;2022-12-11T03:41:10;48.70;;;18.93;;
61911;SDS011;49973;52.084;5.412;2022-12-11T03:43:41;51.17;;;19.50;;
61911;SDS011;49973;52.084;5.412;2022-12-11T03:46:13;54.67;;;18.83;;
61911;SDS011;49973;52.084;5.412;2022-12-11T03:48:43;45.20;;;19.10;;
61911;SDS011;49973;52.084;5.412;2022-12-11T03:51:12;49.13;;;18.50;;
61911;SDS011;49973;52.084;5.412;2022-12-11T03:53:43;45.70;;;18.23;;
61911;SDS011;49973;52.084;5.412;2022-12-11T03:56:14;44.27;;;18.20;;
61911;SDS011;49973;52.084;5.412;2022-12-11T03:58:44;47.53;;;17.47;;
61911;SDS011;49973;52.084;5.412;2022-12-11T04:01:14;37.73;;;16.77;;
61911;SDS011;49973;52.084;5.412;2022-12-11T04:03:43;40.60;;;15.70;;
61911;SDS011;49973;52.084;5.412;2022-12-11T04:06:11;35.37;;;14.97;;
61911;SDS011;49973;52.084;5.412;2022-12-11T04:08:40;39.73;;;16.03;;
61911;SDS011;49973;52.084;5.412;2022-12-11T04:11:08;38.83;;;15.80;;
61911;SDS011;49973;52.084;5.412;2022-12-11T04:13:55;36.53;;;16.07;;
61911;SDS011;49973;52.084;5.412;2022-12-11T04:16:39;34.50;;;14.43;;
61911;SDS011;49973;52.084;5.412;2022-12-11T04:19:07;28.67;;;14.27;;
61911;SDS011;49973;52.084;5.412;2022-12-11T04:21:54;28.00;;;13.97;;
61911;SDS011;49973;52.084;5.412;2022-12-11T04:24:40;29.30;;;13.47;;
61911;SDS011;49973;52.084;5.412;2022-12-11T04:27:09;38.07;;;16.07;;
61911;SDS011;49973;52.084;5.412;2022-12-11T04:29:37;32.17;;;15.57;;
61911;SDS011;49973;52.084;5.412;2022-12-11T04:32:07;29.33;;;13.53;;
61911;SDS011;49973;52.084;5.412;2022-12-11T04:34:35;33.43;;;14.37;;
61911;SDS011;49973;52.084;5.412;2022-12-11T04:37:06;30.97;;;13.97;;
61911;SDS011;49973;52.084;5.412;2022-12-11T04:39:34;30.40;;;14.13;;
61911;SDS011;49973;52.084;5.412;2022-12-11T04:42:03;28.20;;;13.30;;
61911;SDS011;49973;52.084;5.412;2022-12-11T04:44:32;32.00;;;14.37;;
61911;SDS011;49973;52.084;5.412;2022-12-11T04:47:00;28.13;;;13.93;;
61911;SDS011;49973;52.084;5.412;2022-12-11T04:49:30;30.03;;;14.43;;
61911;SDS011;49973;52.084;5.412;2022-12-11T04:51:58;27.47;;;14.30;;
61911;SDS011;49973;52.084;5.412;2022-12-11T04:54:27;28.70;;;14.80;;
61911;SDS011;49973;52.084;5.412;2022-12-11T04:56:56;28.57;;;14.13;;
61911;SDS011;49973;52.084;5.412;2022-12-11T04:59:24;28.93;;;14.67;;
61911;SDS011;49973;52.084;5.412;2022-12-11T05:01:53;31.07;;;13.80;;
61911;SDS011;49973;52.084;5.412;2022-12-11T05:04:21;31.77;;;13.87;;
61911;SDS011;49973;52.084;5.412;2022-12-11T05:06:51;30.17;;;13.10;;
61911;SDS011;49973;52.084;5.412;2022-12-11T05:09:19;25.97;;;12.73;;
61911;SDS011;49973;52.084;5.412;2022-12-11T05:11:48;27.87;;;13.57;;
61911;SDS011;49973;52.084;5.412;2022-12-11T05:14:17;30.87;;;15.50;;
61911;SDS011;49973;52.084;5.412;2022-12-11T05:16:46;27.10;;;13.33;;
61911;SDS011;49973;52.084;5.412;2022-12-11T05:19:14;26.13;;;13.47;;
61911;SDS011;49973;52.084;5.412;2022-12-11T05:21:43;33.37;;;13.70;;
61911;SDS011;49973;52.084;5.412;2022-12-11T05:24:12;25.83;;;12.40;;
61911;SDS011;49973;52.084;5.412;2022-12-11T05:26:41;26.87;;;12.57;;
61911;SDS011;49973;52.084;5.412;2022-12-11T05:29:09;28.30;;;13.40;;
61911;SDS011;49973;52.084;5.412;2022-12-11T05:31:38;26.30;;;12.87;;
61911;SDS011;49973;52.084;5.412;2022-12-11T05:34:06;26.80;;;12.80;;
61911;SDS011;49973;52.084;5.412;2022-12-11T05:36:35;27.23;;;13.63;;
61911;SDS011;49973;52.084;5.412;2022-12-11T05:39:03;28.20;;;13.03;;
61911;SDS011;49973;52.084;5.412;2022-12-11T05:41:33;30.60;;;14.33;;
61911;SDS011;49973;52.084;5.412;2022-12-11T05:44:02;25.00;;;13.20;;
61911;SDS011;49973;52.084;5.412;2022-12-11T05:46:30;27.53;;;12.67;;
61911;SDS011;49973;52.084;5.412;2022-12-11T05:48:59;31.83;;;15.40;;
61911;SDS011;49973;52.084;5.412;2022-12-11T05:51:29;28.83;;;13.30;;
61911;SDS011;49973;52.084;5.412;2022-12-11T05:53:59;28.33;;;12.90;;
61911;SDS011;49973;52.084;5.412;2022-12-11T05:56:30;29.67;;;12.60;;
61911;SDS011;49973;52.084;5.412;2022-12-11T05:59:02;32.10;;;14.07;;
61911;SDS011;49973;52.084;5.412;2022-12-11T06:01:32;24.13;;;12.63;;
61911;SDS011;49973;52.084;5.412;2022-12-11T06:04:02;27.80;;;14.27;;
61911;SDS011;49973;52.084;5.412;2022-12-11T06:06:33;29.70;;;12.53;;
61911;SDS011;49973;52.084;5.412;2022-12-11T06:09:03;36.37;;;15.10;;
61911;SDS011;49973;52.084;5.412;2022-12-11T06:11:32;29.63;;;13.87;;
61911;SDS011;49973;52.084;5.412;2022-12-11T06:14:02;31.10;;;13.83;;
61911;SDS011;49973;52.084;5.412;2022-12-11T06:16:31;30.67;;;14.20;;
61911;SDS011;49973;52.084;5.412;2022-12-11T06:18:59;29.70;;;14.50;;
61911;SDS011;49973;52.084;5.412;2022-12-11T06:21:29;30.60;;;14.63;;
61911;SDS011;49973;52.084;5.412;2022-12-11T06:24:00;31.87;;;14.50;;
61911;SDS011;49973;52.084;5.412;2022-12-11T06:26:29;31.30;;;13.83;;
61911;SDS011;49973;52.084;5.412;2022-12-11T06:28:58;34.77;;;14.83;;
61911;SDS011;49973;52.084;5.412;2022-12-11T06:31:28;32.97;;;15.07;;
61911;SDS011;49973;52.084;5.412;2022-12-11T06:33:57;35.50;;;14.47;;
61911;SDS011;49973;52.084;5.412;2022-12-11T06:36:25;32.17;;;14.83;;
61911;SDS011;49973;52.084;5.412;2022-12-11T06:38:54;34.67;;;14.50;;
61911;SDS011;49973;52.084;5.412;2022-12-11T06:41:22;28.83;;;14.40;;
61911;SDS011;49973;52.084;5.412;2022-12-11T06:43:50;31.13;;;14.37;;
61911;SDS011;49973;52.084;5.412;2022-12-11T06:46:19;29.30;;;15.00;;
61911;SDS011;49973;52.084;5.412;2022-12-11T06:48:49;28.10;;;13.57;;
61911;SDS011;49973;52.084;5.412;2022-12-11T06:51:19;36.30;;;15.57;;
61911;SDS011;49973;52.084;5.412;2022-12-11T06:53:51;40.53;;;15.60;;
61911;SDS011;49973;52.084;5.412;2022-12-11T06:56:21;36.20;;;14.63;;
61911;SDS011;49973;52.084;5.412;2022-12-11T06:58:50;38.03;;;15.87;;
61911;SDS011;49973;52.084;5.412;2022-12-11T07:01:20;40.57;;;15.77;;
61911;SDS011;49973;52.084;5.412;2022-12-11T07:03:52;36.30;;;15.73;;
61911;SDS011;49973;52.084;5.412;2022-12-11T07:06:21;33.60;;;16.30;;
61911;SDS011;49973;52.084;5.412;2022-12-11T07:08:51;36.00;;;16.97;;
61911;SDS011;49973;52.084;5.412;2022-12-11T07:11:20;33.80;;;14.53;;
61911;SDS011;49973;52.084;5.412;2022-12-11T07:13:49;34.57;;;15.83;;
61911;SDS011;49973;52.084;5.412;2022-12-11T07:16:17;35.20;;;15.80;;
61911;SDS011;49973;52.084;5.412;2022-12-11T07:18:47;37.77;;;15.90;;
61911;SDS011;49973;52.084;5.412;2022-12-11T07:21:19;35.37;;;16.33;;
61911;SDS011;49973;52.084;5.412;2022-12-11T07:23:48;28.67;;;15.13;;
61911;SDS011;49973;52.084;5.412;2022-12-11T07:26:18;33.00;;;14.37;;
61911;SDS011;49973;52.084;5.412;2022-12-11T07:28:48;38.50;;;17.07;;
61911;SDS011;49973;52.084;5.412;2022-12-11T07:31:17;34.80;;;17.40;;
61911;SDS011;49973;52.084;5.412;2022-12-11T07:33:51;33.93;;;15.37;;
61911;SDS011;49973;52.084;5.412;2022-12-11T07:36:22;32.30;;;16.37;;
61911;SDS011;49973;52.084;5.412;2022-12-11T07:38:51;36.47;;;16.70;;
61911;SDS011;49973;52.084;5.412;2022-12-11T07:41:20;34.03;;;16.70;;
61911;SDS011;49973;52.084;5.412;2022-12-11T07:43:52;32.57;;;15.73;;
61911;SDS011;49973;52.084;5.412;2022-12-11T07:46:21;32.77;;;16.90;;
61911;SDS011;49973;52.084;5.412;2022-12-11T07:48:51;41.07;;;17.47;;
61911;SDS011;49973;52.084;5.412;2022-12-11T07:51:20;33.47;;;16.23;;
61911;SDS011;49973;52.084;5.412;2022-12-11T07:53:54;37.10;;;18.10;;
61911;SDS011;49973;52.084;5.412;2022-12-11T07:56:23;33.03;;;16.63;;
61911;SDS011;49973;52.084;5.412;2022-12-11T07:58:52;34.77;;;16.50;;
61911;SDS011;49973;52.084;5.412;2022-12-11T08:01:23;31.73;;;16.93;;
61911;SDS011;49973;52.084;5.412;2022-12-11T08:03:53;33.23;;;17.03;;
61911;SDS011;49973;52.084;5.412;2022-12-11T08:06:25;35.70;;;17.60;;
61911;SDS011;49973;52.084;5.412;2022-12-11T08:08:55;36.37;;;18.00;;
61911;SDS011;49973;52.084;5.412;2022-12-11T08:11:25;37.70;;;16.80;;
61911;SDS011;49973;52.084;5.412;2022-12-11T08:13:54;33.80;;;17.87;;
61911;SDS011;49973;52.084;5.412;2022-12-11T08:16:25;34.90;;;17.00;;
61911;SDS011;49973;52.084;5.412;2022-12-11T08:18:53;36.87;;;17.13;;
61911;SDS011;49973;52.084;5.412;2022-12-11T08:21:23;36.70;;;17.53;;
61911;SDS011;49973;52.084;5.412;2022-12-11T08:23:54;35.00;;;17.27;;
61911;SDS011;49973;52.084;5.412;2022-12-11T08:26:24;33.37;;;15.60;;
61911;SDS011;49973;52.084;5.412;2022-12-11T08:28:54;31.43;;;16.27;;
61911;SDS011;49973;52.084;5.412;2022-12-11T08:31:22;30.30;;;14.40;;
61911;SDS011;49973;52.084;5.412;2022-12-11T08:33:51;32.43;;;15.83;;
61911;SDS011;49973;52.084;5.412;2022-12-11T08:36:21;30.43;;;16.00;;
61911;SDS011;49973;52.084;5.412;2022-12-11T08:38:52;28.93;;;15.03;;
61911;SDS011;49973;52.084;5.412;2022-12-11T08:41:22;34.40;;;16.83;;
61911;SDS011;49973;52.084;5.412;2022-12-11T08:43:51;30.90;;;13.77;;
61911;SDS011;49973;52.084;5.412;2022-12-11T08:46:21;32.97;;;12.70;;
61911;SDS011;49973;52.084;5.412;2022-12-11T08:48:51;25.43;;;13.07;;
61911;SDS011;49973;52.084;5.412;2022-12-11T08:51:22;27.70;;;14.03;;
61911;SDS011;49973;52.084;5.412;2022-12-11T08:53:54;27.10;;;12.57;;
61911;SDS011;49973;52.084;5.412;2022-12-11T08:56:24;29.43;;;13.33;;
61911;SDS011;49973;52.084;5.412;2022-12-11T08:58:53;27.17;;;14.63;;
61911;SDS011;49973;52.084;5.412;2022-12-11T09:01:22;30.37;;;15.07;;
61911;SDS011;49973;52.084;5.412;2022-12-11T09:03:53;32.77;;;13.90;;
61911;SDS011;49973;52.084;5.412;2022-12-11T09:06:24;31.47;;;14.80;;
61911;SDS011;49973;52.084;5.412;2022-12-11T09:08:57;31.87;;;15.87;;
61911;SDS011;49973;52.084;5.412;2022-12-11T09:11:27;30.63;;;15.23;;
61911;SDS011;49973;52.084;5.412;2022-12-11T09:13:57;30.37;;;13.90;;
61911;SDS011;49973;52.084;5.412;2022-12-11T09:16:34;29.00;;;14.57;;
61911;SDS011;49973;52.084;5.412;2022-12-11T09:19:06;33.53;;;14.93;;
61911;SDS011;49973;52.084;5.412;2022-12-11T09:21:36;28.43;;;14.23;;
61911;SDS011;49973;52.084;5.412;2022-12-11T09:24:07;33.57;;;13.70;;
61911;SDS011;49973;52.084;5.412;2022-12-11T09:26:37;31.37;;;15.63;;
61911;SDS011;49973;52.084;5.412;2022-12-11T09:29:06;32.13;;;15.27;;
61911;SDS011;49973;52.084;5.412;2022-12-11T09:31:35;23.87;;;13.63;;
61911;SDS011;49973;52.084;5.412;2022-12-11T09:34:05;30.60;;;14.53;;
61911;SDS011;49973;52.084;5.412;2022-12-11T09:36:36;30.50;;;15.27;;
61911;SDS011;49973;52.084;5.412;2022-12-11T09:39:07;26.23;;;13.37;;
61911;SDS011;49973;52.084;5.412;2022-12-11T09:41:36;28.73;;;13.00;;
61911;SDS011;49973;52.084;5.412;2022-12-11T09:44:17;28.30;;;13.87;;
61911;SDS011;49973;52.084;5.412;2022-12-11T09:46:51;28.90;;;13.37;;
61911;SDS011;49973;52.084;5.412;2022-12-11T09:49:21;23.47;;;13.57;;
61911;SDS011;49973;52.084;5.412;2022-12-11T09:51:59;30.83;;;14.50;;
61911;SDS011;49973;52.084;5.412;2022-12-11T09:54:39;24.80;;;13.17;;
61911;SDS011;49973;52.084;5.412;2022-12-11T09:57:17;32.33;;;14.43;;
61911;SDS011;49973;52.084;5.412;2022-12-11T09:59:58;25.87;;;13.40;;
61911;SDS011;49973;52.084;5.412;2022-12-11T10:02:38;32.80;;;14.70;;
61911;SDS011;49973;52.084;5.412;2022-12-11T10:05:29;28.10;;;13.13;;
61911;SDS011;49973;52.084;5.412;2022-12-11T10:08:05;30.97;;;13.57;;
61911;SDS011;49973;52.084;5.412;2022-12-11T10:10:45;28.73;;;12.87;;
61911;SDS011;49973;52.084;5.412;2022-12-11T10:13:25;32.67;;;14.07;;
61911;SDS011;49973;52.084;5.412;2022-12-11T10:16:03;31.93;;;13.77;;
61911;SDS011;49973;52.084;5.412;2022-12-11T10:18:38;26.30;;;12.50;;
61911;SDS011;49973;52.084;5.412;2022-12-11T10:21:07;28.23;;;12.73;;
61911;SDS011;49973;52.084;5.412;2022-12-11T10:23:39;30.13;;;13.10;;
61911;SDS011;49973;52.084;5.412;2022-12-11T10:26:13;23.93;;;12.90;;
61911;SDS011;49973;52.084;5.412;2022-12-11T10:28:44;28.37;;;13.23;;
61911;SDS011;49973;52.084;5.412;2022-12-11T10:31:15;28.70;;;13.33;;
61911;SDS011;49973;52.084;5.412;2022-12-11T10:33:51;23.17;;;12.90;;
61911;SDS011;49973;52.084;5.412;2022-12-11T10:36:25;27.77;;;12.43;;
61911;SDS011;49973;52.084;5.412;2022-12-11T10:38:55;22.80;;;11.80;;
61911;SDS011;49973;52.084;5.412;2022-12-11T10:41:30;27.57;;;12.30;;
61911;SDS011;49973;52.084;5.412;2022-12-11T10:44:13;23.43;;;12.13;;
61911;SDS011;49973;52.084;5.412;2022-12-11T10:46:44;24.83;;;13.10;;
61911;SDS011;49973;52.084;5.412;2022-12-11T10:49:20;21.43;;;11.57;;
61911;SDS011;49973;52.084;5.412;2022-12-11T10:51:51;22.80;;;11.93;;
61911;SDS011;49973;52.084;5.412;2022-12-11T10:54:31;24.27;;;11.80;;
61911;SDS011;49973;52.084;5.412;2022-12-11T10:57:05;23.90;;;10.80;;
61911;SDS011;49973;52.084;5.412;2022-12-11T10:59:37;23.70;;;12.23;;
61911;SDS011;49973;52.084;5.412;2022-12-11T11:02:16;26.87;;;12.03;;
61911;SDS011;49973;52.084;5.412;2022-12-11T11:04:49;26.20;;;11.70;;
61911;SDS011;49973;52.084;5.412;2022-12-11T11:07:19;29.03;;;12.03;;
61911;SDS011;49973;52.084;5.412;2022-12-11T11:09:50;23.43;;;11.50;;
61911;SDS011;49973;52.084;5.412;2022-12-11T11:12:36;27.27;;;12.63;;
61911;SDS011;49973;52.084;5.412;2022-12-11T11:15:09;24.87;;;10.80;;
61911;SDS011;49973;52.084;5.412;2022-12-11T11:17:41;23.93;;;10.73;;
61911;SDS011;49973;52.084;5.412;2022-12-11T11:20:21;24.60;;;11.13;;
61911;SDS011;49973;52.084;5.412;2022-12-11T11:22:52;34.97;;;13.57;;
61911;SDS011;49973;52.084;5.412;2022-12-11T11:25:24;25.97;;;12.77;;
61911;SDS011;49973;52.084;5.412;2022-12-11T11:27:55;22.97;;;11.50;;
61911;SDS011;49973;52.084;5.412;2022-12-11T11:30:26;24.53;;;12.07;;
61911;SDS011;49973;52.084;5.412;2022-12-11T11:32:56;20.57;;;10.57;;
61911;SDS011;49973;52.084;5.412;2022-12-11T11:35:27;20.30;;;10.10;;
61911;SDS011;49973;52.084;5.412;2022-12-11T11:38:02;24.80;;;12.23;;
61911;SDS011;49973;52.084;5.412;2022-12-11T11:40:36;23.23;;;11.07;;
61911;SDS011;49973;52.084;5.412;2022-12-11T11:43:14;22.17;;;10.63;;
61911;SDS011;49973;52.084;5.412;2022-12-11T11:45:48;25.33;;;11.10;;
61911;SDS011;49973;52.084;5.412;2022-12-11T11:48:24;25.93;;;12.10;;
61911;SDS011;49973;52.084;5.412;2022-12-11T11:50:57;21.73;;;12.23;;
61911;SDS011;49973;52.084;5.412;2022-12-11T11:53:29;22.60;;;10.83;;
61911;SDS011;49973;52.084;5.412;2022-12-11T11:56:04;23.67;;;11.67;;
61911;SDS011;49973;52.084;5.412;2022-12-11T11:58:42;24.53;;;12.77;;
61911;SDS011;49973;52.084;5.412;2022-12-11T12:01:14;31.37;;;15.50;;
61911;SDS011;49973;52.084;5.412;2022-12-11T12:03:44;27.97;;;13.97;;
61911;SDS011;49973;52.084;5.412;2022-12-11T12:06:16;20.93;;;11.67;;
61911;SDS011;49973;52.084;5.412;2022-12-11T12:08:56;20.57;;;11.40;;
61911;SDS011;49973;52.084;5.412;2022-12-11T12:11:33;22.33;;;10.47;;
61911;SDS011;49973;52.084;5.412;2022-12-11T12:14:11;22.60;;;10.13;;
61911;SDS011;49973;52.084;5.412;2022-12-11T12:17:05;23.63;;;11.23;;
61911;SDS011;49973;52.084;5.412;2022-12-11T12:19:45;24.40;;;11.53;;
61911;SDS011;49973;52.084;5.412;2022-12-11T12:25:13;18.93;;;10.47;;
61911;SDS011;49973;52.084;5.412;2022-12-11T12:27:48;20.53;;;11.17;;
61911;SDS011;49973;52.084;5.412;2022-12-11T12:30:24;22.80;;;11.73;;
61911;SDS011;49973;52.084;5.412;2022-12-11T12:33:01;19.30;;;9.27;;
61911;SDS011;49973;52.084;5.412;2022-12-11T12:35:43;17.10;;;9.37;;
61911;SDS011;49973;52.084;5.412;2022-12-11T12:38:20;20.57;;;10.53;;
61911;SDS011;49973;52.084;5.412;2022-12-11T12:40:56;23.77;;;10.87;;
61911;SDS011;49973;52.084;5.412;2022-12-11T12:43:49;20.23;;;11.20;;
61911;SDS011;49973;52.084;5.412;2022-12-11T12:46:29;23.37;;;10.97;;
61911;SDS011;49973;52.084;5.412;2022-12-11T12:49:08;22.83;;;11.03;;
61911;SDS011;49973;52.084;5.412;2022-12-11T12:51:42;27.60;;;12.03;;
61911;SDS011;49973;52.084;5.412;2022-12-11T12:54:13;23.57;;;11.97;;
61911;SDS011;49973;52.084;5.412;2022-12-11T12:56:43;28.13;;;14.03;;
61911;SDS011;49973;52.084;5.412;2022-12-11T12:59:18;25.93;;;12.77;;
61911;SDS011;49973;52.084;5.412;2022-12-11T13:01:50;29.57;;;14.30;;
61911;SDS011;49973;52.084;5.412;2022-12-11T13:04:26;28.67;;;13.03;;
61911;SDS011;49973;52.084;5.412;2022-12-11T13:07:18;26.37;;;12.70;;
61911;SDS011;49973;52.084;5.412;2022-12-11T13:09:55;28.63;;;13.30;;
61911;SDS011;49973;52.084;5.412;2022-12-11T13:12:30;28.80;;;13.03;;
61911;SDS011;49973;52.084;5.412;2022-12-11T13:15:27;25.70;;;13.77;;
61911;SDS011;49973;52.084;5.412;2022-12-11T13:18:03;28.37;;;13.40;;
61911;SDS011;49973;52.084;5.412;2022-12-11T13:20:53;25.00;;;13.03;;
61911;SDS011;49973;52.084;5.412;2022-12-11T13:23:26;25.07;;;13.33;;
61911;SDS011;49973;52.084;5.412;2022-12-11T13:25:57;26.47;;;12.47;;
61911;SDS011;49973;52.084;5.412;2022-12-11T13:28:28;25.07;;;13.07;;
61911;SDS011;49973;52.084;5.412;2022-12-11T13:34:15;27.53;;;12.90;;
61911;SDS011;49973;52.084;5.412;2022-12-11T13:36:48;32.57;;;14.10;;
61911;SDS011;49973;52.084;5.412;2022-12-11T13:39:19;33.53;;;13.47;;
61911;SDS011;49973;52.084;5.412;2022-12-11T13:41:51;27.07;;;12.60;;
61911;SDS011;49973;52.084;5.412;2022-12-11T13:44:22;31.77;;;13.63;;
61911;SDS011;49973;52.084;5.412;2022-12-11T13:46:55;37.88;;;17.25;;
61911;SDS011;49973;52.084;5.412;2022-12-11T13:49:27;40.60;;;17.58;;
61911;SDS011;49973;52.084;5.412;2022-12-11T13:52:00;32.40;;;16.33;;
61911;SDS011;49973;52.084;5.412;2022-12-11T13:54:30;31.23;;;13.93;;
61911;SDS011;49973;52.084;5.412;2022-12-11T13:57:01;34.67;;;15.17;;
61911;SDS011;49973;52.084;5.412;2022-12-11T13:59:40;27.20;;;12.83;;
61911;SDS011;49973;52.084;5.412;2022-12-11T14:02:14;32.37;;;14.43;;
61911;SDS011;49973;52.084;5.412;2022-12-11T14:04:50;35.87;;;13.67;;
61911;SDS011;49973;52.084;5.412;2022-12-11T14:07:22;27.87;;;13.97;;
61911;SDS011;49973;52.084;5.412;2022-12-11T14:09:55;29.03;;;14.23;;
61911;SDS011;49973;52.084;5.412;2022-12-11T14:12:28;30.50;;;14.33;;
61911;SDS011;49973;52.084;5.412;2022-12-11T14:14:58;36.07;;;15.80;;
61911;SDS011;49973;52.084;5.412;2022-12-11T14:17:30;36.40;;;15.67;;
61911;SDS011;49973;52.084;5.412;2022-12-11T14:20:03;38.40;;;15.87;;
61911;SDS011;49973;52.084;5.412;2022-12-11T14:22:34;31.63;;;15.10;;
61911;SDS011;49973;52.084;5.412;2022-12-11T14:25:15;33.53;;;15.73;;
61911;SDS011;49973;52.084;5.412;2022-12-11T14:27:47;42.17;;;18.13;;
61911;SDS011;49973;52.084;5.412;2022-12-11T14:30:20;38.77;;;19.63;;
61911;SDS011;49973;52.084;5.412;2022-12-11T14:32:50;39.90;;;17.83;;
61911;SDS011;49973;52.084;5.412;2022-12-11T14:35:24;30.60;;;15.37;;
61911;SDS011;49973;52.084;5.412;2022-12-11T14:38:06;33.23;;;14.33;;
61911;SDS011;49973;52.084;5.412;2022-12-11T14:40:41;37.50;;;16.67;;
61911;SDS011;49973;52.084;5.412;2022-12-11T14:43:14;33.13;;;16.27;;
61911;SDS011;49973;52.084;5.412;2022-12-11T14:45:49;32.73;;;14.97;;
61911;SDS011;49973;52.084;5.412;2022-12-11T14:48:25;31.20;;;13.33;;
61911;SDS011;49973;52.084;5.412;2022-12-11T14:50:59;30.33;;;14.77;;
61911;SDS011;49973;52.084;5.412;2022-12-11T14:53:31;34.47;;;13.70;;
61911;SDS011;49973;52.084;5.412;2022-12-11T14:56:04;29.27;;;12.90;;
61911;SDS011;49973;52.084;5.412;2022-12-11T14:58:36;26.40;;;13.93;;